Time;durP1;ratioP1;P1;durP2;ratioP2;P2;SDS_P1;SDS_P2;PMS_P1;PMS_P2;Temp;Humidity;BMP_temperature;BMP_pressure;BME280_temperature;BME280_humidity;BME280_pressure;Samples;Min_cycle;Max_cycle;Signal;HPM_P1;HPM_P2
2022/02/28 00:01:22;;;;;;;26.03;9.17;;;;;;;;;;6132910;23;20177;-85
2022/02/28 00:04:27;;;;;;;18.23;8.37;;;;;;;;;;6142511;23;20177;-85
2022/02/28 00:07:33;;;;;;;17.67;8.70;;;;;;;;;;6138349;23;20187;-86
2022/02/28 00:10:37;;;;;;;20.17;8.83;;;;;;;;;;6132108;23;20176;-86
2022/02/28 00:13:43;;;;;;;20.57;8.20;;;;;;;;;;6132092;23;20449;-84
2022/02/28 00:16:49;;;;;;;19.13;7.57;;;;;;;;;;6131193;23;20177;-85
2022/02/28 00:19:55;;;;;;;18.97;8.57;;;;;;;;;;6131785;23;20189;-85
2022/02/28 00:23:00;;;;;;;18.97;8.20;;;;;;;;;;6132545;23;20217;-85
2022/02/28 00:26:05;;;;;;;22.10;8.90;;;;;;;;;;6135447;23;20221;-85
2022/02/28 00:29:11;;;;;;;20.83;9.23;;;;;;;;;;6131958;23;20530;-85
2022/02/28 00:32:18;;;;;;;21.40;8.30;;;;;;;;;;6131588;23;20200;-86
2022/02/28 00:35:23;;;;;;;18.43;8.00;;;;;;;;;;6131285;23;20420;-86
2022/02/28 00:38:29;;;;;;;19.00;8.73;;;;;;;;;;6131334;23;20205;-85
2022/02/28 00:41:34;;;;;;;19.20;8.10;;;;;;;;;;6131468;23;20174;-86
2022/02/28 00:44:41;;;;;;;19.43;7.90;;;;;;;;;;6131548;23;20458;-86
2022/02/28 00:47:48;;;;;;;18.50;8.20;;;;;;;;;;6131082;23;20256;-86
2022/02/28 00:50:53;;;;;;;20.63;8.10;;;;;;;;;;6131182;23;20220;-86
2022/02/28 00:53:58;;;;;;;19.70;8.73;;;;;;;;;;6139023;23;20260;-87
2022/02/28 00:57:04;;;;;;;19.30;8.20;;;;;;;;;;6143488;23;20175;-88
2022/02/28 01:00:11;;;;;;;19.47;8.23;;;;;;;;;;6143722;23;20173;-86
2022/02/28 01:03:17;;;;;;;19.00;8.23;;;;;;;;;;6161183;23;20529;-86
2022/02/28 01:06:23;;;;;;;19.30;8.53;;;;;;;;;;6143047;23;20568;-86
2022/02/28 01:09:28;;;;;;;19.13;8.63;;;;;;;;;;6142887;23;20177;-86
2022/02/28 01:12:33;;;;;;;18.70;8.73;;;;;;;;;;6143367;23;20196;-86
2022/02/28 01:15:39;;;;;;;26.33;8.30;;;;;;;;;;6142885;23;20172;-86
2022/02/28 01:18:45;;;;;;;20.13;8.60;;;;;;;;;;6143508;23;20327;-86
2022/02/28 01:21:50;;;;;;;20.10;8.30;;;;;;;;;;6143605;23;20168;-86
2022/02/28 01:24:55;;;;;;;26.60;8.93;;;;;;;;;;6144001;23;20189;-85
2022/02/28 01:28:01;;;;;;;20.57;8.30;;;;;;;;;;6143196;23;20177;-86
2022/02/28 01:31:06;;;;;;;19.87;8.47;;;;;;;;;;6160597;23;20176;-85
2022/02/28 01:34:13;;;;;;;19.37;8.57;;;;;;;;;;6143317;23;20176;-86
2022/02/28 01:37:18;;;;;;;23.40;9.00;;;;;;;;;;6143447;23;20453;-86
2022/02/28 01:40:24;;;;;;;24.30;9.37;;;;;;;;;;6160423;23;20177;-86
2022/02/28 01:43:29;;;;;;;27.23;9.63;;;;;;;;;;6143478;23;20180;-86
2022/02/28 01:46:34;;;;;;;20.43;9.47;;;;;;;;;;6145064;23;20208;-86
2022/02/28 01:49:41;;;;;;;21.87;9.67;;;;;;;;;;6146022;23;20189;-85
2022/02/28 01:52:48;;;;;;;22.13;9.33;;;;;;;;;;6143333;23;20239;-86
2022/02/28 01:55:53;;;;;;;23.87;9.90;;;;;;;;;;6142878;23;20176;-86
2022/02/28 01:58:58;;;;;;;19.87;9.50;;;;;;;;;;6143017;23;20197;-86
2022/02/28 02:02:03;;;;;;;19.40;8.50;;;;;;;;;;6144212;23;20225;-86
2022/02/28 02:05:10;;;;;;;21.70;9.40;;;;;;;;;;6142284;23;20227;-86
2022/02/28 02:08:15;;;;;;;24.70;9.50;;;;;;;;;;6143055;23;20180;-87
2022/02/28 02:11:21;;;;;;;21.77;9.33;;;;;;;;;;6142785;23;20256;-86
2022/02/28 02:14:27;;;;;;;18.83;8.50;;;;;;;;;;6160052;23;20208;-86
2022/02/28 02:17:32;;;;;;;21.30;9.43;;;;;;;;;;6160082;23;20259;-86
2022/02/28 02:20:40;;;;;;;20.20;8.77;;;;;;;;;;6143034;23;20172;-86
2022/02/28 02:23:45;;;;;;;17.43;8.27;;;;;;;;;;6160270;23;20423;-86
2022/02/28 02:26:51;;;;;;;19.83;8.87;;;;;;;;;;6142234;23;20297;-85
2022/02/28 02:29:56;;;;;;;21.43;8.40;;;;;;;;;;6143068;23;20180;-86
2022/02/28 02:33:01;;;;;;;23.67;8.63;;;;;;;;;;6143886;23;20195;-86
2022/02/28 02:36:09;;;;;;;18.83;8.77;;;;;;;;;;6142514;23;20609;-85
2022/02/28 02:39:17;;;;;;;19.70;8.57;;;;;;;;;;6142849;23;20281;-86
2022/02/28 02:42:22;;;;;;;22.07;8.63;;;;;;;;;;6160923;23;20172;-85
2022/02/28 02:45:27;;;;;;;22.57;9.43;;;;;;;;;;6147717;23;20173;-86
2022/02/28 02:48:33;;;;;;;22.10;9.13;;;;;;;;;;6163577;23;20176;-85
2022/02/28 02:51:47;;;;;;;19.47;9.27;;;;;;;;;;6164037;23;20193;-86
2022/02/28 02:54:54;;;;;;;19.60;9.50;;;;;;;;;;6140612;23;20201;-86
2022/02/28 02:58:03;;;;;;;25.53;9.30;;;;;;;;;;6132884;23;20189;-85
2022/02/28 03:01:08;;;;;;;23.77;10.07;;;;;;;;;;6131215;23;20181;-86
2022/02/28 03:04:14;;;;;;;23.63;9.87;;;;;;;;;;6130976;23;20190;-85
2022/02/28 03:07:21;;;;;;;25.53;9.70;;;;;;;;;;6130827;23;20177;-86
2022/02/28 03:10:27;;;;;;;23.63;9.67;;;;;;;;;;6131116;23;20415;-86
2022/02/28 03:13:33;;;;;;;22.87;9.80;;;;;;;;;;6131232;23;20317;-85
2022/02/28 03:16:39;;;;;;;27.57;10.20;;;;;;;;;;6129014;23;20184;-87
2022/02/28 03:19:46;;;;;;;21.83;10.00;;;;;;;;;;6130963;23;20192;-86
2022/02/28 03:22:53;;;;;;;21.73;10.40;;;;;;;;;;6130702;23;20177;-86
2022/02/28 03:25:59;;;;;;;24.77;9.37;;;;;;;;;;6130302;23;20229;-85
2022/02/28 03:29:04;;;;;;;25.67;9.70;;;;;;;;;;6130596;23;20404;-86
2022/02/28 03:32:10;;;;;;;24.57;9.57;;;;;;;;;;6129954;23;20170;-86
2022/02/28 03:35:15;;;;;;;23.63;9.83;;;;;;;;;;6130643;23;20289;-85
2022/02/28 03:38:23;;;;;;;30.80;9.60;;;;;;;;;;6130768;23;20235;-86
2022/02/28 03:41:29;;;;;;;25.77;10.03;;;;;;;;;;6135533;23;20173;-87
2022/02/28 03:44:34;;;;;;;29.90;11.03;;;;;;;;;;6130332;23;20170;-85
2022/02/28 03:47:44;;;;;;;24.30;9.97;;;;;;;;;;6130221;23;20549;-85
2022/02/28 03:51:15;;;;;;;20.07;8.93;;;;;;;;;;6131312;23;20177;-85
2022/02/28 03:54:22;;;;;;;29.00;9.80;;;;;;;;;;6142463;23;20251;-84
2022/02/28 03:57:29;;;;;;;24.07;10.00;;;;;;;;;;6142605;23;20180;-85
2022/02/28 04:00:35;;;;;;;21.60;9.90;;;;;;;;;;6146628;23;20176;-85
2022/02/28 04:03:40;;;;;;;23.83;9.70;;;;;;;;;;6170322;23;20248;-85
2022/02/28 04:06:47;;;;;;;25.30;9.97;;;;;;;;;;6153161;23;20197;-85
2022/02/28 04:09:57;;;;;;;24.27;9.60;;;;;;;;;;6169721;23;20172;-85
2022/02/28 04:13:02;;;;;;;25.60;9.67;;;;;;;;;;6142594;23;20552;-86
2022/02/28 04:16:08;;;;;;;25.33;10.10;;;;;;;;;;6143830;23;20176;-85
2022/02/28 04:19:14;;;;;;;22.37;9.73;;;;;;;;;;6144245;23;20303;-86
2022/02/28 04:22:25;;;;;;;28.73;9.77;;;;;;;;;;6143233;23;20177;-87
2022/02/28 04:25:32;;;;;;;28.83;10.30;;;;;;;;;;6142047;23;20196;-86
2022/02/28 04:28:38;;;;;;;27.00;9.90;;;;;;;;;;6142745;23;20177;-86
2022/02/28 04:31:43;;;;;;;24.27;10.10;;;;;;;;;;6142962;23;20223;-86
2022/02/28 04:34:49;;;;;;;24.37;10.00;;;;;;;;;;6142240;23;20180;-86
2022/02/28 04:37:54;;;;;;;26.83;9.67;;;;;;;;;;6142317;23;20541;-86
2022/02/28 04:41:02;;;;;;;25.23;10.43;;;;;;;;;;6142988;23;20183;-87
2022/02/28 04:44:07;;;;;;;21.97;10.13;;;;;;;;;;6143169;23;20181;-87
2022/02/28 04:47:13;;;;;;;26.17;10.10;;;;;;;;;;6144036;23;20176;-86
2022/02/28 04:50:35;;;;;;;26.57;10.43;;;;;;;;;;6144151;23;20172;-86
2022/02/28 04:53:41;;;;;;;24.43;10.23;;;;;;;;;;6144493;23;20279;-87
2022/02/28 04:56:49;;;;;;;28.30;9.43;;;;;;;;;;6143942;23;20173;-86
2022/02/28 04:59:54;;;;;;;26.03;10.43;;;;;;;;;;6144602;23;20265;-86
2022/02/28 05:03:00;;;;;;;24.63;9.77;;;;;;;;;;6143986;23;20542;-86
2022/02/28 05:06:06;;;;;;;24.30;10.60;;;;;;;;;;6143857;23;20183;-87
2022/02/28 05:09:12;;;;;;;30.10;10.20;;;;;;;;;;6144144;23;20172;-86
2022/02/28 05:12:19;;;;;;;26.03;10.30;;;;;;;;;;6143900;23;20263;-86
2022/02/28 05:15:25;;;;;;;22.07;9.93;;;;;;;;;;6143670;23;20395;-86
2022/02/28 05:18:31;;;;;;;24.60;10.37;;;;;;;;;;6146827;23;20180;-86
2022/02/28 05:21:36;;;;;;;23.10;9.53;;;;;;;;;;6147014;23;20454;-87
2022/02/28 05:24:43;;;;;;;29.87;10.80;;;;;;;;;;6144386;23;20180;-86
2022/02/28 05:27:50;;;;;;;27.93;10.90;;;;;;;;;;6144325;23;20172;-86
2022/02/28 05:30:57;;;;;;;25.83;10.27;;;;;;;;;;6144068;23;20240;-86
2022/02/28 05:34:02;;;;;;;24.03;9.70;;;;;;;;;;6145360;23;20200;-86
2022/02/28 05:37:07;;;;;;;26.13;10.37;;;;;;;;;;6146599;23;20240;-86
2022/02/28 05:40:39;;;;;;;23.33;10.00;;;;;;;;;;6171281;23;20432;-86
2022/02/28 05:43:48;;;;;;;27.07;10.27;;;;;;;;;;6153172;23;20604;-86
2022/02/28 05:46:53;;;;;;;28.47;10.90;;;;;;;;;;6162449;23;20180;-86
2022/02/28 05:50:06;;;;;;;28.70;11.27;;;;;;;;;;6181209;23;20245;-86
2022/02/28 05:53:12;;;;;;;29.43;11.10;;;;;;;;;;6163957;23;20226;-86
2022/02/28 05:56:18;;;;;;;31.70;12.30;;;;;;;;;;6164044;23;20206;-87
2022/02/28 05:59:25;;;;;;;31.37;11.13;;;;;;;;;;6164883;23;20193;-86
2022/02/28 06:02:31;;;;;;;27.93;10.60;;;;;;;;;;6164890;23;20160;-85
2022/02/28 06:05:36;;;;;;;29.00;10.97;;;;;;;;;;6164503;23;20177;-85
2022/02/28 06:08:41;;;;;;;27.53;11.40;;;;;;;;;;6145511;23;20180;-86
2022/02/28 06:11:49;;;;;;;33.97;11.33;;;;;;;;;;6145470;23;20189;-86
2022/02/28 06:14:56;;;;;;;26.87;11.07;;;;;;;;;;6143094;23;20251;-86
2022/02/28 06:18:04;;;;;;;24.67;10.17;;;;;;;;;;6144573;23;20259;-86
2022/02/28 06:21:09;;;;;;;28.67;11.20;;;;;;;;;;6144687;23;20188;-86
2022/02/28 06:24:15;;;;;;;47.73;11.33;;;;;;;;;;6144106;23;20168;-86
2022/02/28 06:27:22;;;;;;;35.53;11.73;;;;;;;;;;6144072;23;20544;-86
2022/02/28 06:30:29;;;;;;;28.83;11.97;;;;;;;;;;6145980;23;20172;-87
2022/02/28 06:33:34;;;;;;;26.00;11.00;;;;;;;;;;6161351;23;20245;-86
2022/02/28 06:36:40;;;;;;;35.37;11.20;;;;;;;;;;6143547;23;20276;-87
2022/02/28 06:39:46;;;;;;;25.80;11.47;;;;;;;;;;6144403;23;20200;-86
2022/02/28 06:42:51;;;;;;;26.90;11.17;;;;;;;;;;6144448;23;20284;-86
2022/02/28 06:45:58;;;;;;;31.57;10.93;;;;;;;;;;6144432;23;20269;-85
2022/02/28 06:49:04;;;;;;;35.77;11.07;;;;;;;;;;6143771;23;20192;-86
2022/02/28 06:52:09;;;;;;;29.67;11.23;;;;;;;;;;6144854;23;20172;-87
2022/02/28 06:55:14;;;;;;;28.20;11.87;;;;;;;;;;6132041;23;20208;-86
2022/02/28 06:58:21;;;;;;;23.30;10.43;;;;;;;;;;6131884;23;20184;-86
2022/02/28 07:01:31;;;;;;;29.23;11.47;;;;;;;;;;6132722;23;20252;-85
2022/02/28 07:04:57;;;;;;;29.43;11.57;;;;;;;;;;6117349;23;20189;-85
2022/02/28 07:08:02;;;;;;;31.70;10.60;;;;;;;;;;6130835;23;20332;-86
2022/02/28 07:11:08;;;;;;;30.43;11.43;;;;;;;;;;6131313;23;20177;-85
2022/02/28 07:14:14;;;;;;;27.03;11.37;;;;;;;;;;6132302;23;20204;-86
2022/02/28 07:17:23;;;;;;;26.63;11.17;;;;;;;;;;6133936;23;20452;-86
2022/02/28 07:20:29;;;;;;;26.87;10.10;;;;;;;;;;6132835;23;20285;-87
2022/02/28 07:23:35;;;;;;;30.33;10.50;;;;;;;;;;6130985;23;20419;-87
2022/02/28 07:26:40;;;;;;;26.83;11.23;;;;;;;;;;6130797;23;20282;-85
2022/02/28 07:29:46;;;;;;;26.50;11.30;;;;;;;;;;6131314;23;20172;-86
2022/02/28 07:32:54;;;;;;;26.33;11.90;;;;;;;;;;6141288;23;20177;-86
2022/02/28 07:36:01;;;;;;;29.00;12.27;;;;;;;;;;6138141;23;20189;-88
2022/02/28 07:39:06;;;;;;;22.20;9.87;;;;;;;;;;6141995;23;20177;-83
2022/02/28 07:42:12;;;;;;;24.93;10.27;;;;;;;;;;6132806;23;20228;-86
2022/02/28 07:45:17;;;;;;;36.67;12.53;;;;;;;;;;6144523;23;20177;-87
2022/02/28 07:48:25;;;;;;;35.13;12.00;;;;;;;;;;6151473;23;20173;-86
2022/02/28 07:51:30;;;;;;;36.00;12.63;;;;;;;;;;6132944;23;20182;-86
2022/02/28 07:54:36;;;;;;;36.97;13.03;;;;;;;;;;6138901;23;20258;-86
2022/02/28 07:57:41;;;;;;;34.93;12.33;;;;;;;;;;6133277;23;20173;-85
2022/02/28 08:00:46;;;;;;;26.00;11.60;;;;;;;;;;6132168;23;20457;-86
2022/02/28 08:03:53;;;;;;;28.90;12.23;;;;;;;;;;6131541;23;20173;-87
2022/02/28 08:07:00;;;;;;;30.57;12.97;;;;;;;;;;6131008;23;20248;-87
2022/02/28 08:10:07;;;;;;;38.30;13.57;;;;;;;;;;6148514;23;20201;-87
2022/02/28 08:13:12;;;;;;;42.80;13.53;;;;;;;;;;6148178;23;20201;-87
2022/02/28 08:16:18;;;;;;;34.80;13.07;;;;;;;;;;6147876;23;20174;-86
2022/02/28 08:19:25;;;;;;;34.00;14.13;;;;;;;;;;6139408;23;20521;-87
2022/02/28 08:22:30;;;;;;;35.60;14.23;;;;;;;;;;6132344;23;20185;-88
2022/02/28 08:25:35;;;;;;;41.83;13.97;;;;;;;;;;6131953;23;20413;-86
2022/02/28 08:28:41;;;;;;;33.77;12.73;;;;;;;;;;6132549;23;20181;-87
2022/02/28 08:31:47;;;;;;;44.23;14.97;;;;;;;;;;6133372;23;20177;-88
2022/02/28 08:34:55;;;;;;;42.90;15.13;;;;;;;;;;6133818;23;20396;-88
2022/02/28 08:38:00;;;;;;;37.93;14.67;;;;;;;;;;6133351;23;20212;-88
2022/02/28 08:41:05;;;;;;;38.97;14.77;;;;;;;;;;6133335;23;20173;-87
2022/02/28 08:44:11;;;;;;;34.70;13.80;;;;;;;;;;6133519;23;20214;-88
2022/02/28 08:47:17;;;;;;;34.90;13.63;;;;;;;;;;6133834;23;20177;-87
2022/02/28 08:50:23;;;;;;;34.40;13.23;;;;;;;;;;6132612;23;20514;-88
2022/02/28 08:53:28;;;;;;;34.00;12.40;;;;;;;;;;6133534;23;20297;-86
2022/02/28 08:56:36;;;;;;;33.10;14.00;;;;;;;;;;6144802;23;20177;-86
2022/02/28 08:59:42;;;;;;;33.07;14.07;;;;;;;;;;6144178;23;20525;-87
2022/02/28 09:02:49;;;;;;;38.30;13.47;;;;;;;;;;6145147;23;20223;-87
2022/02/28 09:05:57;;;;;;;34.63;12.90;;;;;;;;;;6145442;23;20462;-88
2022/02/28 09:09:02;;;;;;;38.77;12.90;;;;;;;;;;6161681;23;20215;-88
2022/02/28 09:12:08;;;;;;;34.47;12.10;;;;;;;;;;6145014;23;20183;-86
2022/02/28 09:15:13;;;;;;;37.67;16.60;;;;;;;;;;6144034;23;20216;-88
2022/02/28 09:18:19;;;;;;;35.60;14.37;;;;;;;;;;6146537;23;20176;-86
2022/02/28 09:21:27;;;;;;;35.00;11.97;;;;;;;;;;6144750;23;20300;-87
2022/02/28 09:24:36;;;;;;;28.17;11.03;;;;;;;;;;6149707;23;20173;-87
2022/02/28 09:27:43;;;;;;;27.83;10.13;;;;;;;;;;6152114;23;20176;-86
2022/02/28 09:30:48;;;;;;;21.27;8.57;;;;;;;;;;6146008;23;20638;-87
2022/02/28 09:33:53;;;;;;;22.27;8.07;;;;;;;;;;6143713;23;20200;-87
2022/02/28 09:37:01;;;;;;;20.67;8.10;;;;;;;;;;6149794;23;20196;-84
2022/02/28 09:40:08;;;;;;;30.20;7.67;;;;;;;;;;6144192;23;20172;-86
2022/02/28 09:43:16;;;;;;;22.17;7.90;;;;;;;;;;6161959;23;20220;-85
2022/02/28 09:46:41;;;;;;;21.17;8.07;;;;;;;;;;6161769;23;20204;-86
2022/02/28 09:50:22;;;;;;;20.50;7.90;;;;;;;;;;6153801;23;20204;-87
2022/02/28 09:53:50;;;;;;;25.07;8.17;;;;;;;;;;6154789;23;20568;-87
2022/02/28 09:57:21;;;;;;;17.23;7.27;;;;;;;;;;6148868;23;20191;-87
2022/02/28 10:00:48;;;;;;;21.13;7.47;;;;;;;;;;6144723;23;20412;-88
2022/02/28 10:03:54;;;;;;;23.27;7.80;;;;;;;;;;6144013;23;20522;-87
2022/02/28 10:07:01;;;;;;;18.20;7.30;;;;;;;;;;6145193;23;20439;-87
2022/02/28 10:10:10;;;;;;;22.23;8.10;;;;;;;;;;6164671;23;20169;-86
2022/02/28 10:13:17;;;;;;;20.20;7.93;;;;;;;;;;6163839;23;20176;-86
2022/02/28 10:16:33;;;;;;;20.17;7.00;;;;;;;;;;6162686;23;20529;-86
2022/02/28 10:19:38;;;;;;;22.27;7.77;;;;;;;;;;6162898;23;20175;-87
2022/02/28 10:22:43;;;;;;;21.10;7.30;;;;;;;;;;6144375;23;20180;-87
2022/02/28 10:25:53;;;;;;;19.50;7.90;;;;;;;;;;6143868;23;20557;-86
2022/02/28 10:29:18;;;;;;;27.20;7.80;;;;;;;;;;6162020;23;20180;-87
2022/02/28 10:32:53;;;;;;;14.87;6.23;;;;;;;;;;6154283;23;20192;-87
2022/02/28 10:36:21;;;;;;;20.63;7.50;;;;;;;;;;6161346;23;20596;-88
2022/02/28 10:39:35;;;;;;;18.67;6.57;;;;;;;;;;6155293;23;20172;-87
2022/02/28 10:42:56;;;;;;;16.30;5.80;;;;;;;;;;6163157;23;20181;-87
2022/02/28 10:46:16;;;;;;;13.60;5.33;;;;;;;;;;6162047;23;20164;-87
2022/02/28 10:49:22;;;;;;;16.10;6.20;;;;;;;;;;6155451;23;20423;-87
2022/02/28 10:52:28;;;;;;;12.80;5.47;;;;;;;;;;6145109;23;20177;-87
2022/02/28 10:55:33;;;;;;;11.87;5.20;;;;;;;;;;6131265;23;20496;-87
2022/02/28 10:58:39;;;;;;;15.23;5.57;;;;;;;;;;6132181;23;20177;-87
2022/02/28 11:01:47;;;;;;;12.03;5.30;;;;;;;;;;6149415;23;20268;-87
2022/02/28 11:05:04;;;;;;;13.13;5.63;;;;;;;;;;6132369;23;20192;-86
2022/02/28 11:08:09;;;;;;;13.37;5.63;;;;;;;;;;6131202;23;20182;-87
2022/02/28 11:11:15;;;;;;;20.13;6.53;;;;;;;;;;6130512;23;20582;-87
2022/02/28 11:14:21;;;;;;;13.50;5.50;;;;;;;;;;6130904;23;20177;-88
2022/02/28 11:17:32;;;;;;;11.73;5.17;;;;;;;;;;6131395;23;20417;-86
2022/02/28 11:20:38;;;;;;;16.97;5.90;;;;;;;;;;6130638;23;20499;-87
2022/02/28 11:23:45;;;;;;;12.53;5.63;;;;;;;;;;6133794;23;20177;-87
2022/02/28 11:26:50;;;;;;;12.60;5.53;;;;;;;;;;6139294;23;20235;-86
2022/02/28 11:29:57;;;;;;;12.07;4.70;;;;;;;;;;6149550;23;20617;-87
2022/02/28 11:33:07;;;;;;;12.43;5.13;;;;;;;;;;6143290;23;20217;-86
2022/02/28 11:36:13;;;;;;;18.50;5.90;;;;;;;;;;6150134;23;20249;-88
2022/02/28 11:39:18;;;;;;;9.57;4.27;;;;;;;;;;6150691;23;20210;-86
2022/02/28 11:42:39;;;;;;;15.50;4.93;;;;;;;;;;6149272;23;20220;-88
2022/02/28 11:45:52;;;;;;;12.87;5.77;;;;;;;;;;6149314;23;20498;-87
2022/02/28 11:49:04;;;;;;;16.40;5.33;;;;;;;;;;6150011;23;20174;-87
2022/02/28 11:52:28;;;;;;;14.83;5.57;;;;;;;;;;6136101;23;20201;-87
2022/02/28 11:55:34;;;;;;;18.50;6.10;;;;;;;;;;6133406;23;20208;-87
2022/02/28 11:58:48;;;;;;;12.87;5.03;;;;;;;;;;6136105;23;20176;-87
2022/02/28 12:01:54;;;;;;;13.07;4.80;;;;;;;;;;6136926;23;20573;-86
2022/02/28 12:05:02;;;;;;;16.13;5.73;;;;;;;;;;6134971;23;20173;-87
2022/02/28 12:08:12;;;;;;;12.20;5.17;;;;;;;;;;6132871;23;20180;-86
2022/02/28 12:11:19;;;;;;;17.53;6.33;;;;;;;;;;6132743;23;20216;-87
2022/02/28 12:14:25;;;;;;;12.10;4.87;;;;;;;;;;6132780;23;20201;-87
2022/02/28 12:17:50;;;;;;;16.57;5.23;;;;;;;;;;6132149;23;20178;-87
2022/02/28 12:21:09;;;;;;;12.83;5.17;;;;;;;;;;6132241;23;20546;-87
2022/02/28 12:24:14;;;;;;;12.13;4.97;;;;;;;;;;6132061;23;20221;-87
2022/02/28 12:27:19;;;;;;;9.53;4.03;;;;;;;;;;6132883;23;20173;-88
2022/02/28 12:30:48;;;;;;;12.90;4.80;;;;;;;;;;6131958;23;20182;-87
2022/02/28 12:34:00;;;;;;;8.30;3.37;;;;;;;;;;6132233;23;20578;-86
2022/02/28 12:37:08;;;;;;;9.00;4.10;;;;;;;;;;6132380;23;20233;-88
2022/02/28 12:40:13;;;;;;;8.80;3.73;;;;;;;;;;6138063;23;20176;-88
2022/02/28 12:43:20;;;;;;;10.07;3.63;;;;;;;;;;6132689;23;20601;-87
2022/02/28 12:46:26;;;;;;;13.83;5.00;;;;;;;;;;6132455;23;20216;-87
2022/02/28 12:49:34;;;;;;;10.30;4.10;;;;;;;;;;6133949;23;20261;-87
2022/02/28 12:52:51;;;;;;;11.47;4.70;;;;;;;;;;6132884;23;20181;-87
2022/02/28 12:55:58;;;;;;;13.30;5.03;;;;;;;;;;6132193;23;20197;-88
2022/02/28 12:59:03;;;;;;;13.50;4.50;;;;;;;;;;6132925;23;20185;-87
2022/02/28 13:02:10;;;;;;;9.97;4.73;;;;;;;;;;6134123;23;20182;-88
2022/02/28 13:05:22;;;;;;;11.87;4.67;;;;;;;;;;6131083;23;20172;-88
2022/02/28 13:08:30;;;;;;;13.57;4.37;;;;;;;;;;6133471;23;20176;-88
2022/02/28 13:11:36;;;;;;;9.47;4.17;;;;;;;;;;6135907;23;20409;-87
2022/02/28 13:14:43;;;;;;;10.90;4.97;;;;;;;;;;6134303;23;20248;-88
2022/02/28 13:17:48;;;;;;;9.07;4.17;;;;;;;;;;6134690;23;20181;-87
2022/02/28 13:20:53;;;;;;;12.33;4.90;;;;;;;;;;6133268;23;20186;-87
2022/02/28 13:24:17;;;;;;;12.80;5.17;;;;;;;;;;6132859;23;20177;-88
2022/02/28 13:27:22;;;;;;;12.53;5.23;;;;;;;;;;6133281;23;20248;-87
2022/02/28 13:30:35;;;;;;;14.43;5.30;;;;;;;;;;6132720;23;20185;-88
2022/02/28 13:33:40;;;;;;;13.00;5.43;;;;;;;;;;6132165;23;20522;-88
2022/02/28 13:36:46;;;;;;;14.87;4.83;;;;;;;;;;6133703;23;20282;-88
2022/02/28 13:39:55;;;;;;;19.43;4.80;;;;;;;;;;6132974;23;20620;-88
2022/02/28 13:43:05;;;;;;;15.87;5.80;;;;;;;;;;6133743;23;20409;-88
2022/02/28 13:46:15;;;;;;;15.40;5.40;;;;;;;;;;6133943;23;20169;-87
2022/02/28 13:49:22;;;;;;;13.43;5.63;;;;;;;;;;6137532;23;20212;-88
2022/02/28 13:52:30;;;;;;;13.53;5.17;;;;;;;;;;6152482;23;20243;-89
2022/02/28 13:55:37;;;;;;;12.80;5.70;;;;;;;;;;6151923;23;20245;-87
2022/02/28 13:58:44;;;;;;;11.67;5.40;;;;;;;;;;6134397;23;20176;-88
2022/02/28 14:01:50;;;;;;;15.53;6.17;;;;;;;;;;6133870;23;20185;-89
2022/02/28 14:05:08;;;;;;;16.40;7.00;;;;;;;;;;6134177;23;20177;-86
2022/02/28 14:08:15;;;;;;;16.73;5.83;;;;;;;;;;6133152;23;20173;-87
2022/02/28 14:11:35;;;;;;;17.33;6.30;;;;;;;;;;6132405;23;20264;-87
2022/02/28 14:14:41;;;;;;;15.23;6.10;;;;;;;;;;6132825;23;20185;-88
2022/02/28 14:17:54;;;;;;;15.60;6.00;;;;;;;;;;6134743;23;20169;-88
2022/02/28 14:21:06;;;;;;;18.60;5.67;;;;;;;;;;6134664;23;20180;-88
2022/02/28 14:24:52;;;;;;;14.43;5.57;;;;;;;;;;6103379;23;20174;-89
2022/02/28 14:28:18;;;;;;;14.20;5.57;;;;;;;;;;6105389;23;20182;-87
2022/02/28 14:31:48;;;;;;;14.43;5.37;;;;;;;;;;6126614;23;20193;-87
2022/02/28 14:34:53;;;;;;;24.47;6.50;;;;;;;;;;6134710;23;20189;-86
2022/02/28 14:38:00;;;;;;;15.10;6.00;;;;;;;;;;6135254;23;20209;-86
2022/02/28 14:41:08;;;;;;;15.93;5.70;;;;;;;;;;6149722;23;20198;-86
2022/02/28 14:44:15;;;;;;;18.80;6.33;;;;;;;;;;6151384;23;20221;-86
2022/02/28 14:47:21;;;;;;;14.57;6.10;;;;;;;;;;6151197;23;20197;-87
2022/02/28 14:50:27;;;;;;;21.90;6.23;;;;;;;;;;6150691;23;20193;-87
2022/02/28 14:53:32;;;;;;;16.80;6.67;;;;;;;;;;6151690;23;20189;-87
2022/02/28 14:56:39;;;;;;;11.73;4.63;;;;;;;;;;6161524;23;20265;-87
2022/02/28 14:59:46;;;;;;;15.47;6.20;;;;;;;;;;6160531;23;20168;-86
2022/02/28 15:02:55;;;;;;;19.53;7.13;;;;;;;;;;6161388;23;20176;-87
2022/02/28 15:06:04;;;;;;;19.83;7.20;;;;;;;;;;6143916;23;20249;-89
2022/02/28 15:09:21;;;;;;;19.40;6.83;;;;;;;;;;6144893;23;20184;-88
2022/02/28 15:12:26;;;;;;;16.23;6.37;;;;;;;;;;6145535;23;20181;-87
2022/02/28 15:15:33;;;;;;;17.30;7.13;;;;;;;;;;6144829;23;20229;-87
2022/02/28 15:18:38;;;;;;;19.30;6.80;;;;;;;;;;6144386;23;20482;-87
2022/02/28 15:21:44;;;;;;;14.87;5.93;;;;;;;;;;6144797;23;20296;-88
2022/02/28 15:24:50;;;;;;;16.03;6.60;;;;;;;;;;6144518;23;20406;-88
2022/02/28 15:27:55;;;;;;;16.90;6.63;;;;;;;;;;6143159;23;20169;-87
2022/02/28 15:31:04;;;;;;;32.93;7.23;;;;;;;;;;6144169;23;20218;-87
2022/02/28 15:34:09;;;;;;;18.37;6.40;;;;;;;;;;6144620;23;20545;-87
2022/02/28 15:37:16;;;;;;;13.23;6.13;;;;;;;;;;6145395;23;20223;-86
2022/02/28 15:40:26;;;;;;;16.00;7.70;;;;;;;;;;6145966;23;20252;-86
2022/02/28 15:43:32;;;;;;;20.25;7.57;;;;;;;;;;6143995;23;20184;-87
2022/02/28 15:46:39;;;;;;;19.70;6.85;;;;;;;;;;6143882;23;20292;-87
2022/02/28 15:49:44;;;;;;;18.33;7.67;;;;;;;;;;6143837;23;20176;-87
2022/02/28 15:52:50;;;;;;;19.17;7.23;;;;;;;;;;6143560;23;20188;-87
2022/02/28 15:55:55;;;;;;;17.53;6.73;;;;;;;;;;6142418;23;20244;-87
2022/02/28 15:59:01;;;;;;;18.97;7.27;;;;;;;;;;6144332;23;20494;-87
2022/02/28 16:02:07;;;;;;;17.33;7.03;;;;;;;;;;6144484;23;20521;-87
2022/02/28 16:05:12;;;;;;;22.30;7.63;;;;;;;;;;6144081;23;20179;-85
2022/02/28 16:08:18;;;;;;;16.73;6.83;;;;;;;;;;6161421;23;20237;-87
2022/02/28 16:11:24;;;;;;;16.70;7.63;;;;;;;;;;6162705;23;20216;-86
2022/02/28 16:14:30;;;;;;;19.93;7.30;;;;;;;;;;6179297;23;20172;-88
2022/02/28 16:17:38;;;;;;;17.57;7.03;;;;;;;;;;6142604;23;20312;-87
2022/02/28 16:20:43;;;;;;;18.83;7.27;;;;;;;;;;6144101;23;20189;-86
2022/02/28 16:23:48;;;;;;;16.80;6.87;;;;;;;;;;6145209;23;20499;-87
2022/02/28 16:26:54;;;;;;;16.80;7.00;;;;;;;;;;6127885;23;20565;-88
2022/02/28 16:30:00;;;;;;;17.83;6.80;;;;;;;;;;6145079;23;20173;-87
2022/02/28 16:33:08;;;;;;;16.33;7.43;;;;;;;;;;6144492;23;20172;-87
2022/02/28 16:36:13;;;;;;;19.83;7.90;;;;;;;;;;6144358;23;20426;-86
2022/02/28 16:39:19;;;;;;;19.00;7.17;;;;;;;;;;6144351;23;20185;-88
2022/02/28 16:42:28;;;;;;;18.57;7.27;;;;;;;;;;6145490;23;20533;-87
2022/02/28 16:45:33;;;;;;;16.63;7.27;;;;;;;;;;6128270;23;20172;-86
2022/02/28 16:48:40;;;;;;;16.33;7.27;;;;;;;;;;6145130;23;20590;-87
2022/02/28 16:51:45;;;;;;;16.60;6.63;;;;;;;;;;6152549;23;20208;-87
2022/02/28 16:54:51;;;;;;;16.87;7.20;;;;;;;;;;6181905;23;20248;-85
2022/02/28 16:57:56;;;;;;;21.87;8.93;;;;;;;;;;6164644;23;20241;-85
2022/02/28 17:01:02;;;;;;;58.33;19.73;;;;;;;;;;6163610;23;20180;-87
2022/02/28 17:04:09;;;;;;;20.00;7.53;;;;;;;;;;6181312;23;20181;-87
2022/02/28 17:07:15;;;;;;;20.13;7.83;;;;;;;;;;6164206;23;20206;-85
2022/02/28 17:10:20;;;;;;;20.10;8.13;;;;;;;;;;6163915;23;20152;-86
2022/02/28 17:13:28;;;;;;;23.63;8.50;;;;;;;;;;6181339;23;20196;-86
2022/02/28 17:16:34;;;;;;;20.87;8.27;;;;;;;;;;6160107;23;20261;-87
2022/02/28 17:19:43;;;;;;;21.60;8.20;;;;;;;;;;6164798;23;20160;-85
2022/02/28 17:22:49;;;;;;;21.67;9.13;;;;;;;;;;6163636;23;20155;-87
2022/02/28 17:25:54;;;;;;;21.23;8.40;;;;;;;;;;6156963;23;20173;-86
2022/02/28 17:29:00;;;;;;;20.07;8.10;;;;;;;;;;6162860;23;20177;-86
2022/02/28 17:32:06;;;;;;;22.83;8.47;;;;;;;;;;6162140;23;20156;-86
2022/02/28 17:35:15;;;;;;;28.17;8.87;;;;;;;;;;6159608;23;20252;-86
2022/02/28 17:38:21;;;;;;;24.70;9.70;;;;;;;;;;6158638;23;20248;-87
2022/02/28 17:41:26;;;;;;;24.40;9.13;;;;;;;;;;6151958;23;20177;-88
2022/02/28 17:44:34;;;;;;;35.50;13.97;;;;;;;;;;6146965;23;20184;-87
2022/02/28 17:47:42;;;;;;;27.27;9.27;;;;;;;;;;6147359;23;20212;-88
2022/02/28 17:50:49;;;;;;;27.23;9.17;;;;;;;;;;6144548;23;20177;-88
2022/02/28 17:53:58;;;;;;;21.27;9.43;;;;;;;;;;6144295;23;20660;-87
2022/02/28 17:57:04;;;;;;;26.77;10.17;;;;;;;;;;6144935;23;20394;-87
2022/02/28 18:00:15;;;;;;;21.70;8.17;;;;;;;;;;6144735;23;20171;-88
2022/02/28 18:03:20;;;;;;;24.27;8.77;;;;;;;;;;6145266;23;20521;-86
2022/02/28 18:06:27;;;;;;;24.00;9.20;;;;;;;;;;6143220;23;20176;-86
2022/02/28 18:09:33;;;;;;;20.30;8.00;;;;;;;;;;6143641;23;20492;-84
2022/02/28 18:12:39;;;;;;;20.43;8.40;;;;;;;;;;6143437;23;20181;-86
2022/02/28 18:15:46;;;;;;;23.27;9.03;;;;;;;;;;6144494;23;20177;-86
2022/02/28 18:18:51;;;;;;;21.60;9.60;;;;;;;;;;6143420;23;20176;-87
2022/02/28 18:21:58;;;;;;;21.67;8.33;;;;;;;;;;6160283;23;20172;-85
2022/02/28 18:25:06;;;;;;;19.43;8.20;;;;;;;;;;6143428;23;20172;-86